Terminal Aerodrome Forecast
Issued by NWS

Home | Current Version | Previous Version | Text Only | Print | Product List | Glossary On
Versions: 1 2 3 4 5 6 7 8 9 10 11 12 13 14
000
FTAK31 PAJN 260521
TAFAKT
TAF
PAKT 260521Z 2606/2706 VRB04KT P6SM -SHRA FEW035 BKN045 OVC060
     FM261200 VRB04KT P6SM VCSH FEW025 OVC050
     FM261800 33008KT P6SM VCSH BKN050
      AMD LTD TO CLD VIS AND WIND 2606/2615=

USA.gov is the U.S. government's official web portal to all federal, state and local government web resources and services.